createdAt,value
2019-01-25T00:01:04.840Z,35.15
2019-01-25T00:03:47.417Z,33.63
2019-01-25T00:06:29.525Z,27.65
2019-01-25T00:09:11.979Z,29.15
2019-01-25T00:11:54.366Z,30.00
2019-01-25T00:14:36.279Z,29.52
2019-01-25T00:17:18.725Z,25.90
2019-01-25T00:20:01.143Z,25.82
2019-01-25T00:22:44.078Z,30.43
2019-01-25T00:25:26.223Z,25.68
2019-01-25T00:28:08.842Z,29.40
2019-01-25T00:30:50.889Z,27.20
2019-01-25T00:33:32.977Z,28.45
2019-01-25T00:39:32.648Z,29.45
2019-01-25T00:42:36.029Z,28.32
2019-01-25T00:45:33.262Z,22.90
2019-01-25T00:54:48.844Z,23.55
2019-01-25T00:57:59.950Z,28.45
2019-01-25T01:00:58.968Z,28.23
2019-01-25T01:04:02.099Z,26.65
2019-01-25T01:06:51.691Z,25.65
2019-01-25T01:09:33.788Z,25.80
2019-01-25T01:12:15.719Z,25.25
2019-01-25T01:14:57.746Z,23.02
2019-01-25T01:17:40.758Z,26.23
2019-01-25T01:20:23.476Z,26.20
2019-01-25T01:23:05.860Z,23.42
2019-01-25T01:25:47.723Z,24.50
2019-01-25T01:28:29.592Z,23.02
2019-01-25T01:31:11.414Z,22.55
2019-01-25T01:33:54.017Z,23.87
2019-01-25T01:36:36.545Z,25.82
2019-01-25T01:39:18.368Z,22.48
2019-01-25T01:42:01.614Z,24.18
2019-01-25T01:44:44.286Z,25.95
2019-01-25T01:47:26.688Z,26.00
2019-01-25T01:50:09.216Z,24.00
2019-01-25T01:52:51.914Z,24.92
2019-01-25T01:55:33.913Z,25.30
2019-01-25T01:58:16.477Z,26.55
2019-01-25T02:00:59.057Z,29.75
2019-01-25T02:03:41.204Z,26.27
2019-01-25T02:06:23.679Z,25.27
2019-01-25T02:09:05.604Z,29.18
2019-01-25T02:11:48.161Z,28.73
2019-01-25T02:14:30.353Z,30.68
2019-01-25T02:17:12.883Z,22.25
2019-01-25T02:19:55.958Z,26.27
2019-01-25T02:22:38.159Z,25.40
2019-01-25T02:25:20.600Z,25.70
2019-01-25T02:28:03.323Z,25.45
2019-01-25T02:30:45.732Z,27.17
2019-01-25T02:33:28.519Z,27.17
2019-01-25T02:36:10.343Z,27.15
2019-01-25T02:38:52.529Z,26.52
2019-01-25T02:41:35.156Z,27.98
2019-01-25T02:44:17.647Z,24.75
2019-01-25T02:46:59.456Z,27.17
2019-01-25T02:49:42.362Z,26.55
2019-01-25T02:52:25.003Z,26.70
2019-01-25T02:55:07.677Z,28.65
2019-01-25T02:57:49.612Z,28.23
2019-01-25T03:00:31.456Z,29.42
2019-01-25T03:03:13.294Z,28.65
2019-01-25T03:05:56.042Z,26.87
2019-01-25T03:08:38.256Z,28.32
2019-01-25T03:11:20.499Z,27.87
2019-01-25T03:14:02.703Z,26.95
2019-01-25T03:16:45.058Z,26.30
2019-01-25T03:19:27.546Z,28.65
2019-01-25T03:22:10.343Z,24.15
2019-01-25T03:24:52.167Z,28.52
2019-01-25T03:27:34.793Z,29.67
2019-01-25T03:30:16.492Z,28.35
2019-01-25T03:32:58.413Z,26.93
2019-01-25T03:35:40.455Z,27.22
2019-01-25T03:38:22.408Z,30.40
2019-01-25T03:41:04.467Z,28.00
2019-01-25T03:43:47.133Z,30.75
2019-01-25T03:46:29.630Z,25.25
2019-01-25T03:49:12.416Z,26.25
2019-01-25T03:51:54.407Z,30.55
2019-01-25T03:54:36.164Z,26.82
2019-01-25T03:57:18.730Z,30.52
2019-01-25T04:00:01.532Z,30.40
2019-01-25T04:02:43.528Z,27.80
2019-01-25T04:05:26.378Z,30.90
2019-01-25T04:08:08.409Z,26.60
2019-01-25T04:10:50.703Z,27.85
2019-01-25T04:13:32.844Z,31.27
2019-01-25T04:16:15.387Z,32.40
2019-01-25T04:18:57.791Z,35.92
2019-01-25T04:21:40.236Z,31.33
2019-01-25T04:24:22.666Z,30.05
2019-01-25T04:27:05.209Z,31.40
2019-01-25T04:29:47.529Z,27.35
2019-01-25T04:32:29.790Z,30.35
2019-01-25T04:35:11.528Z,35.10
2019-01-25T04:37:53.864Z,32.15
2019-01-25T04:40:36.189Z,30.90
2019-01-25T04:43:18.733Z,30.75
2019-01-25T04:46:00.744Z,30.52
2019-01-25T04:48:43.052Z,30.85
2019-01-25T04:51:25.422Z,31.82
2019-01-25T04:54:07.331Z,31.95
2019-01-25T04:56:49.908Z,28.95
2019-01-25T04:59:31.779Z,32.95
2019-01-25T05:02:15.980Z,32.73
2019-01-25T05:04:58.010Z,36.77
2019-01-25T05:07:40.206Z,31.68
2019-01-25T05:10:22.276Z,40.78
2019-01-25T05:13:04.297Z,47.80
2019-01-25T05:15:46.505Z,32.75
2019-01-25T05:18:28.418Z,45.05
2019-01-25T05:21:10.950Z,39.98
2019-01-25T05:23:53.134Z,35.40
2019-01-25T05:26:35.933Z,40.05
2019-01-25T05:29:19.726Z,32.93
2019-01-25T05:32:03.543Z,35.80
2019-01-25T05:34:45.539Z,31.82
2019-01-25T05:37:27.954Z,32.93
2019-01-25T05:40:10.493Z,32.30
2019-01-25T05:42:52.831Z,37.60
2019-01-25T05:45:36.508Z,30.92
2019-01-25T05:48:19.063Z,31.60
2019-01-25T05:51:01.347Z,34.08
2019-01-25T05:53:45.525Z,31.40
2019-01-25T05:56:28.099Z,33.05
2019-01-25T05:59:10.643Z,34.38
2019-01-25T06:01:53.449Z,34.20
2019-01-25T06:04:35.522Z,33.60
2019-01-25T06:07:17.653Z,38.13
2019-01-25T06:09:59.647Z,37.25
2019-01-25T06:12:42.378Z,29.77
2019-01-25T06:15:26.712Z,36.65
2019-01-25T06:18:09.490Z,34.15
2019-01-25T06:20:52.086Z,33.15
2019-01-25T06:23:34.845Z,32.17
2019-01-25T06:26:17.035Z,32.17
2019-01-25T06:28:59.405Z,31.17
2019-01-25T06:31:41.751Z,33.13
2019-01-25T06:34:23.620Z,32.15
2019-01-25T06:37:05.979Z,32.50
2019-01-25T06:39:48.039Z,32.75
2019-01-25T06:42:30.333Z,35.08
2019-01-25T06:45:12.281Z,34.40
2019-01-25T06:47:54.481Z,34.03
2019-01-25T06:50:36.890Z,34.75
2019-01-25T06:53:19.559Z,36.23
2019-01-25T06:56:01.901Z,35.23
2019-01-25T06:59:03.125Z,35.13
2019-01-25T07:01:54.675Z,37.13
2019-01-25T07:04:36.549Z,34.70
2019-01-25T07:10:48.469Z,31.95
2019-01-25T07:13:30.702Z,34.23
2019-01-25T07:16:13.059Z,34.80
2019-01-25T07:18:55.666Z,32.67
2019-01-25T07:21:37.797Z,32.58
2019-01-25T07:24:20.502Z,35.25
2019-01-25T07:27:02.947Z,38.80
2019-01-25T07:29:45.261Z,36.48
2019-01-25T07:32:28.676Z,35.90
2019-01-25T07:35:10.713Z,33.78
2019-01-25T07:37:53.110Z,37.17
2019-01-25T07:40:35.447Z,35.00
2019-01-25T07:43:17.845Z,32.78
2019-01-25T07:45:59.966Z,33.55
2019-01-25T07:48:42.685Z,31.95
2019-01-25T07:51:25.384Z,30.25
2019-01-25T07:54:07.311Z,32.15
2019-01-25T07:56:49.625Z,32.65
2019-01-25T07:59:31.570Z,35.80
2019-01-25T08:02:13.929Z,40.05
2019-01-25T08:04:55.823Z,34.23
2019-01-25T08:07:38.168Z,34.58
2019-01-25T08:10:20.526Z,34.45
2019-01-25T08:13:02.525Z,34.03
2019-01-25T08:15:44.865Z,36.83
2019-01-25T08:18:27.189Z,38.75
2019-01-25T08:21:09.147Z,35.73
2019-01-25T08:23:51.388Z,38.80
2019-01-25T08:26:33.605Z,34.70
2019-01-25T08:29:16.309Z,37.10
2019-01-25T08:31:58.040Z,35.83
2019-01-25T08:34:40.154Z,36.93
2019-01-25T08:37:22.419Z,38.60
2019-01-25T08:40:05.162Z,35.48
2019-01-25T08:42:47.674Z,37.95
2019-01-25T08:45:30.372Z,40.73
2019-01-25T08:48:12.354Z,39.25
2019-01-25T08:50:54.861Z,35.23
2019-01-25T08:53:37.340Z,34.38
2019-01-25T08:56:19.820Z,36.93
2019-01-25T08:59:01.956Z,36.88
2019-01-25T09:01:44.373Z,35.48
2019-01-25T09:04:26.761Z,37.45
2019-01-25T09:07:08.919Z,33.20
2019-01-25T09:09:51.827Z,32.88
2019-01-25T09:12:34.471Z,36.30
2019-01-25T09:15:16.797Z,34.95
2019-01-25T09:17:58.737Z,31.60
2019-01-25T09:20:41.294Z,35.35
2019-01-25T09:23:23.903Z,36.85
2019-01-25T09:26:05.926Z,34.27
2019-01-25T09:28:48.686Z,33.30
2019-01-25T09:31:31.155Z,34.23
2019-01-25T09:34:13.441Z,35.73
2019-01-25T09:36:55.431Z,35.30
2019-01-25T09:39:37.699Z,32.23
2019-01-25T09:42:20.283Z,35.08
2019-01-25T09:45:03.330Z,35.68
2019-01-25T09:47:46.019Z,39.67
2019-01-25T09:50:28.701Z,34.20
2019-01-25T09:53:10.943Z,34.40
2019-01-25T09:55:52.935Z,33.55
2019-01-25T09:58:35.060Z,32.10
2019-01-25T10:01:17.259Z,31.42
2019-01-25T10:03:59.411Z,29.77
2019-01-25T10:06:41.314Z,33.53
2019-01-25T10:09:24.002Z,34.18
2019-01-25T10:12:06.251Z,30.10
2019-01-25T10:14:48.342Z,32.45
2019-01-25T10:17:30.599Z,25.80
2019-01-25T10:20:12.521Z,33.02
2019-01-25T10:22:54.631Z,30.52
2019-01-25T10:25:36.926Z,28.30
2019-01-25T10:28:19.306Z,30.68
2019-01-25T10:31:01.484Z,27.52
2019-01-25T10:33:43.933Z,29.92
2019-01-25T10:36:26.076Z,35.23
2019-01-25T10:39:08.396Z,31.97
2019-01-25T10:41:51.320Z,27.85
2019-01-25T10:44:33.409Z,27.87
2019-01-25T10:47:15.815Z,27.45
2019-01-25T10:49:59.232Z,31.25
2019-01-25T10:52:41.642Z,29.37
2019-01-25T10:55:23.782Z,30.45
2019-01-25T10:58:06.024Z,33.00
2019-01-25T11:00:48.609Z,28.35
2019-01-25T11:03:30.806Z,26.33
2019-01-25T11:06:12.898Z,27.65
2019-01-25T11:08:55.165Z,29.07
2019-01-25T11:11:37.490Z,29.90
2019-01-25T11:14:19.506Z,29.80
2019-01-25T11:17:01.931Z,27.15
2019-01-25T11:19:43.988Z,30.05
2019-01-25T11:22:25.983Z,28.38
2019-01-25T11:25:08.693Z,28.30
2019-01-25T11:27:52.103Z,28.38
2019-01-25T11:30:34.097Z,32.20
2019-01-25T11:33:16.078Z,28.65
2019-01-25T11:35:58.247Z,27.15
2019-01-25T11:38:40.626Z,26.82
2019-01-25T11:41:22.633Z,33.35
2019-01-25T11:44:04.822Z,32.58
2019-01-25T11:46:47.197Z,28.05
2019-01-25T11:49:29.258Z,25.77
2019-01-25T11:52:11.838Z,25.70
2019-01-25T11:54:54.308Z,29.02
2019-01-25T11:57:36.207Z,28.23
2019-01-25T12:00:19.225Z,27.48
2019-01-25T12:03:01.017Z,28.80
2019-01-25T12:05:43.022Z,30.00
2019-01-25T12:08:25.487Z,32.15
2019-01-25T12:11:07.836Z,32.40
2019-01-25T12:13:50.530Z,31.80
2019-01-25T12:16:33.133Z,30.30
2019-01-25T12:19:14.967Z,32.28
2019-01-25T12:21:57.286Z,29.87
2019-01-25T12:24:39.395Z,28.38
2019-01-25T12:27:21.675Z,29.60
2019-01-25T12:30:03.454Z,25.43
2019-01-25T12:32:45.766Z,28.87
2019-01-25T12:35:28.225Z,29.87
2019-01-25T12:38:10.428Z,29.35
2019-01-25T12:40:52.899Z,29.77
2019-01-25T12:43:35.066Z,25.82
2019-01-25T12:46:17.367Z,28.83
2019-01-25T12:48:59.708Z,27.93
2019-01-25T12:51:41.913Z,29.85
2019-01-25T12:54:24.111Z,28.23
2019-01-25T12:57:05.911Z,25.60
2019-01-25T12:59:48.695Z,28.52
2019-01-25T13:02:30.654Z,28.27
2019-01-25T13:05:12.445Z,30.72
2019-01-25T13:07:54.626Z,27.73
2019-01-25T13:10:36.714Z,24.50
2019-01-25T13:13:19.021Z,27.73
2019-01-25T13:16:01.145Z,28.20
2019-01-25T13:18:43.553Z,25.85
2019-01-25T13:21:25.599Z,26.60
2019-01-25T13:24:07.631Z,24.65
2019-01-25T13:26:49.837Z,25.10
2019-01-25T13:29:31.755Z,26.23
2019-01-25T13:32:14.666Z,28.05
2019-01-25T13:34:56.661Z,23.55
2019-01-25T13:37:38.594Z,22.35
2019-01-25T13:40:20.705Z,27.27
2019-01-25T13:43:03.413Z,25.97
2019-01-25T13:45:45.803Z,24.12
2019-01-25T13:48:27.851Z,25.65
2019-01-25T13:51:09.657Z,24.72
2019-01-25T13:53:51.598Z,25.35
2019-01-25T13:56:33.863Z,26.05
2019-01-25T13:59:15.949Z,22.15
2019-01-25T14:01:59.010Z,19.60
2019-01-25T14:04:43.282Z,22.87
2019-01-25T14:07:25.202Z,21.60
2019-01-25T14:10:07.896Z,22.45
2019-01-25T14:12:50.291Z,21.65
2019-01-25T14:15:32.631Z,23.55
2019-01-25T14:18:15.417Z,22.37
2019-01-25T14:20:57.907Z,26.48
2019-01-25T14:23:40.137Z,21.33
2019-01-25T14:26:22.066Z,18.45
2019-01-25T14:29:03.889Z,23.27
2019-01-25T14:31:46.283Z,22.73
2019-01-25T14:34:29.367Z,21.05
2019-01-25T14:37:11.338Z,23.38
2019-01-25T14:39:53.447Z,22.10
2019-01-25T14:42:35.634Z,22.40
2019-01-25T14:45:17.710Z,17.95
2019-01-25T14:47:59.895Z,18.52
2019-01-25T14:50:42.939Z,16.90
2019-01-25T14:53:24.765Z,19.98
2019-01-25T14:56:06.864Z,18.85
2019-01-25T14:58:49.176Z,19.35
2019-01-25T15:01:31.579Z,21.40
2019-01-25T15:04:14.047Z,25.37
2019-01-25T15:06:56.110Z,20.12
2019-01-25T15:09:38.286Z,23.60
2019-01-25T15:12:20.572Z,20.02
2019-01-25T15:15:02.652Z,18.40
2019-01-25T15:17:45.515Z,19.45
2019-01-25T15:20:28.435Z,18.52
2019-01-25T15:23:10.907Z,17.17
2019-01-25T15:25:54.051Z,17.30
2019-01-25T15:28:37.021Z,19.25
2019-01-25T15:31:19.469Z,16.90
2019-01-25T15:34:01.698Z,18.75
2019-01-25T15:36:43.960Z,17.55
2019-01-25T15:39:26.507Z,18.57
2019-01-25T15:42:09.078Z,19.87
2019-01-25T15:44:51.323Z,19.35
2019-01-25T15:47:33.935Z,18.17
2019-01-25T15:50:16.204Z,20.90
2019-01-25T15:52:58.881Z,20.97
2019-01-25T15:55:41.381Z,18.65
2019-01-25T15:58:23.167Z,22.52
2019-01-25T16:01:05.772Z,21.50
2019-01-25T16:03:48.286Z,20.08
2019-01-25T16:06:30.133Z,20.45
2019-01-25T16:09:14.384Z,20.90
2019-01-25T16:11:56.167Z,18.48
2019-01-25T16:14:38.862Z,20.12
2019-01-25T16:17:21.015Z,17.02
2019-01-25T16:20:03.506Z,19.60
2019-01-25T16:22:46.351Z,17.02
2019-01-25T16:25:28.655Z,15.93
2019-01-25T16:28:10.655Z,17.07
2019-01-25T16:30:53.312Z,15.25
2019-01-25T16:33:35.813Z,17.02
2019-01-25T16:36:17.695Z,18.73
2019-01-25T16:38:59.763Z,17.40
2019-01-25T16:41:42.266Z,18.23
2019-01-25T16:44:25.734Z,18.75
2019-01-25T16:47:08.503Z,20.50
2019-01-25T16:49:50.630Z,19.85
2019-01-25T16:52:32.850Z,17.77
2019-01-25T16:55:15.071Z,19.85
2019-01-25T16:57:57.390Z,21.62
2019-01-25T17:00:39.577Z,18.82
2019-01-25T17:03:22.566Z,17.32
2019-01-25T17:06:04.876Z,18.37
2019-01-25T17:08:46.911Z,18.85
2019-01-25T17:11:29.173Z,18.90
2019-01-25T17:14:11.178Z,14.93
2019-01-25T17:16:53.303Z,19.82
2019-01-25T17:19:36.448Z,17.32
2019-01-25T17:22:18.823Z,16.50
2019-01-25T17:25:02.061Z,17.67
2019-01-25T17:27:44.613Z,20.48
2019-01-25T17:30:26.997Z,16.42
2019-01-25T17:33:08.983Z,16.55
2019-01-25T17:35:50.838Z,18.20
2019-01-25T17:38:33.007Z,19.12
2019-01-25T17:41:15.298Z,19.35
2019-01-25T17:43:57.509Z,17.27
2019-01-25T17:46:40.176Z,22.13
2019-01-25T17:49:22.821Z,19.77
2019-01-25T17:52:05.093Z,16.15
2019-01-25T17:54:47.414Z,15.58
2019-01-25T17:57:29.758Z,15.95
2019-01-25T18:00:12.330Z,18.95
2019-01-25T18:02:54.259Z,17.42
2019-01-25T18:05:36.339Z,14.87
2019-01-25T18:08:18.783Z,17.60
2019-01-25T18:11:00.972Z,17.95
2019-01-25T18:13:43.417Z,18.30
2019-01-25T18:16:25.494Z,16.65
2019-01-25T18:19:07.930Z,19.10
2019-01-25T18:21:49.908Z,18.02
2019-01-25T18:24:32.112Z,19.02
2019-01-25T18:27:14.586Z,19.77
2019-01-25T18:29:56.714Z,18.85
2019-01-25T18:32:38.800Z,17.90
2019-01-25T18:35:21.506Z,18.05
2019-01-25T18:38:03.304Z,18.12
2019-01-25T18:40:45.315Z,17.50
2019-01-25T18:43:27.362Z,17.30
2019-01-25T18:46:09.335Z,18.23
2019-01-25T18:48:51.739Z,14.98
2019-01-25T18:51:33.824Z,19.00
2019-01-25T18:54:16.182Z,21.40
2019-01-25T18:56:58.751Z,22.95
2019-01-25T18:59:41.451Z,18.57
2019-01-25T19:02:24.221Z,18.50
2019-01-25T19:05:06.618Z,18.87
2019-01-25T19:07:48.777Z,17.12
2019-01-25T19:10:30.986Z,19.70
2019-01-25T19:13:13.197Z,17.32
2019-01-25T19:15:55.015Z,21.42
2019-01-25T19:18:36.849Z,18.12
2019-01-25T19:21:19.249Z,21.23
2019-01-25T19:24:01.737Z,21.00
2019-01-25T19:26:43.764Z,23.20
2019-01-25T19:29:25.735Z,22.98
2019-01-25T19:32:07.989Z,21.62
2019-01-25T19:34:50.041Z,16.60
2019-01-25T19:37:32.009Z,18.23
2019-01-25T19:40:14.342Z,18.20
2019-01-25T19:42:56.950Z,21.45
2019-01-25T19:45:38.762Z,21.20
2019-01-25T19:48:20.764Z,20.27
2019-01-25T19:51:03.944Z,17.52
2019-01-25T19:53:46.318Z,18.57
2019-01-25T19:56:29.459Z,17.92
2019-01-25T19:59:12.231Z,18.30
2019-01-25T20:01:54.382Z,18.35
2019-01-25T20:04:36.787Z,19.80
2019-01-25T20:07:19.057Z,18.90
2019-01-25T20:10:01.413Z,20.23
2019-01-25T20:12:44.473Z,19.17
2019-01-25T20:15:26.469Z,19.85
2019-01-25T20:18:08.282Z,19.02
2019-01-25T20:20:50.324Z,20.30
2019-01-25T20:23:32.975Z,21.55
2019-01-25T20:26:14.932Z,21.27
2019-01-25T20:28:57.181Z,22.90
2019-01-25T20:31:40.005Z,20.95
2019-01-25T20:34:22.491Z,22.58
2019-01-25T20:37:05.426Z,21.75
2019-01-25T20:39:47.304Z,22.02
2019-01-25T20:42:30.294Z,19.80
2019-01-25T20:45:12.207Z,19.75
2019-01-25T20:47:55.074Z,20.00
2019-01-25T20:50:37.896Z,18.87
2019-01-25T20:53:20.111Z,19.50
2019-01-25T20:56:02.798Z,19.82
2019-01-25T20:58:44.771Z,17.17
2019-01-25T21:01:27.437Z,17.57
2019-01-25T21:04:09.809Z,17.92
2019-01-25T21:06:52.302Z,17.10
2019-01-25T21:09:34.448Z,16.05
2019-01-25T21:12:16.756Z,16.62
2019-01-25T21:14:59.114Z,16.50
2019-01-25T21:17:41.448Z,16.62
2019-01-25T21:20:23.851Z,15.00
2019-01-25T21:23:05.680Z,18.25
2019-01-25T21:25:48.415Z,21.25
2019-01-25T21:28:30.725Z,16.20
2019-01-25T21:31:12.875Z,16.02
2019-01-25T21:33:54.584Z,17.05
2019-01-25T21:36:36.470Z,15.43
2019-01-25T21:39:18.319Z,13.30
2019-01-25T21:42:00.589Z,15.10
2019-01-25T21:44:42.959Z,16.48
2019-01-25T21:47:25.416Z,17.17
2019-01-25T21:50:07.587Z,16.65
2019-01-25T21:52:49.674Z,17.27
2019-01-25T21:55:31.613Z,15.25
2019-01-25T21:58:13.938Z,18.27
2019-01-25T22:00:55.775Z,14.23
2019-01-25T22:03:38.267Z,17.12
2019-01-25T22:06:20.907Z,17.42
2019-01-25T22:09:04.282Z,14.30
2019-01-25T22:11:46.019Z,15.20
2019-01-25T22:14:28.731Z,17.57
2019-01-25T22:17:10.579Z,16.02
2019-01-25T22:19:52.930Z,18.00
2019-01-25T22:22:35.345Z,16.70
2019-01-25T22:25:18.082Z,18.02
2019-01-25T22:28:00.184Z,17.07
2019-01-25T22:30:42.494Z,16.95
2019-01-25T22:33:24.862Z,20.72
2019-01-25T22:36:07.080Z,18.73
2019-01-25T22:38:49.444Z,17.42
2019-01-25T22:41:31.649Z,17.75
2019-01-25T22:44:13.600Z,15.85
2019-01-25T22:46:57.682Z,19.00
2019-01-25T22:49:39.709Z,16.77
2019-01-25T22:52:22.046Z,19.05
2019-01-25T22:55:04.003Z,16.15
2019-01-25T22:57:46.017Z,13.32
2019-01-25T23:03:36.583Z,16.15
2019-01-25T23:06:18.871Z,18.45
2019-01-25T23:09:01.207Z,16.95
2019-01-25T23:11:44.080Z,16.60
2019-01-25T23:14:26.580Z,20.32
2019-01-25T23:17:09.051Z,18.42
2019-01-25T23:19:51.139Z,22.90
2019-01-25T23:22:33.657Z,22.40
2019-01-25T23:25:16.324Z,21.73
2019-01-25T23:27:58.372Z,23.00
2019-01-25T23:30:40.634Z,22.17
2019-01-25T23:33:23.475Z,22.00
2019-01-25T23:36:05.897Z,21.93
2019-01-25T23:38:48.225Z,22.58
2019-01-25T23:41:30.396Z,22.90
2019-01-25T23:44:12.811Z,26.35
2019-01-25T23:46:54.893Z,27.45
2019-01-25T23:49:37.103Z,25.92
2019-01-25T23:52:18.996Z,25.70
2019-01-25T23:55:01.139Z,25.05
2019-01-25T23:57:43.150Z,22.50
